Time;durP1;ratioP1;P1;durP2;ratioP2;P2;SDS_P1;SDS_P2;PMS_P1;PMS_P2;Temp;Humidity;BMP_temperature;BMP_pressure;BME280_temperature;BME280_humidity;BME280_pressure;Samples;Min_cycle;Max_cycle;Signal;HPM_P1;HPM_P2
2022/10/29 00:00:30;;;;;;;18.15;8.30;;;;;;;15.05;100.00;101050.16;5023696;28;20223;-76
2022/10/29 00:02:58;;;;;;;13.90;7.95;;;;;;;15.10;100.00;101048.06;5015193;28;20210;-75
2022/10/29 00:05:25;;;;;;;19.60;8.15;;;;;;;15.03;100.00;101052.09;5014585;28;20569;-74
2022/10/29 00:07:51;;;;;;;18.30;8.55;;;;;;;15.02;100.00;101050.34;5014620;28;20202;-75
2022/10/29 00:10:18;;;;;;;18.33;8.63;;;;;;;14.99;100.00;101045.97;5014307;28;20775;-76
2022/10/29 00:12:44;;;;;;;15.75;8.40;;;;;;;14.88;100.00;101052.91;5016725;28;20233;-76
2022/10/29 00:15:11;;;;;;;11.60;8.02;;;;;;;14.93;100.00;101051.72;5018284;28;20572;-75
2022/10/29 00:17:38;;;;;;;16.90;8.40;;;;;;;14.87;100.00;101054.75;5017707;28;20218;-75
2022/10/29 00:20:08;;;;;;;15.13;7.90;;;;;;;14.88;100.00;101053.78;5015604;28;20609;-75
2022/10/29 00:22:34;;;;;;;18.20;8.15;;;;;;;14.83;100.00;101055.84;5014305;28;20221;-76
2022/10/29 00:25:01;;;;;;;13.75;7.72;;;;;;;14.74;100.00;101065.38;5015603;28;20233;-75
2022/10/29 00:27:27;;;;;;;16.23;7.75;;;;;;;14.79;100.00;101065.13;5014696;28;20423;-74
2022/10/29 00:29:54;;;;;;;11.77;7.30;;;;;;;14.69;100.00;101067.44;5014028;28;20590;-75
2022/10/29 00:32:21;;;;;;;16.27;8.07;;;;;;;14.64;100.00;101061.38;5014488;28;20198;-76
2022/10/29 00:34:47;;;;;;;17.23;8.43;;;;;;;14.48;100.00;101060.38;5014915;28;20210;-76
2022/10/29 00:37:15;;;;;;;14.68;8.13;;;;;;;14.43;100.00;101062.47;5014787;28;20202;-75
2022/10/29 00:39:42;;;;;;;16.60;7.57;;;;;;;14.37;100.00;101059.06;5033260;22;20237;-73
2022/10/29 00:42:14;;;;;;;12.75;8.82;;;;;;;14.34;100.00;101058.38;5031741;28;20195;-74
2022/10/29 00:44:41;;;;;;;19.58;8.65;;;;;;;14.27;100.00;101059.63;5019827;28;20286;-73
2022/10/29 00:47:19;;;;;;;17.33;8.35;;;;;;;14.19;100.00;101063.59;5020310;28;20208;-73
2022/10/29 00:49:49;;;;;;;20.42;8.93;;;;;;;14.22;100.00;101058.97;5025053;28;20218;-75
2022/10/29 00:52:19;;;;;;;17.38;8.80;;;;;;;14.14;100.00;101060.25;5023352;28;20281;-74
2022/10/29 00:54:48;;;;;;;13.82;8.02;;;;;;;14.16;100.00;101062.88;5025463;28;20189;-74
2022/10/29 00:57:21;;;;;;;14.35;8.27;;;;;;;14.08;100.00;101062.38;5031658;28;20218;-74
2022/10/29 00:59:49;;;;;;;11.30;8.50;;;;;;;13.98;100.00;101053.84;5028236;28;20222;-73
2022/10/29 01:02:15;;;;;;;13.18;8.73;;;;;;;14.09;100.00;101058.72;5015360;28;20624;-74
2022/10/29 01:04:42;;;;;;;14.15;9.18;;;;;;;14.14;100.00;101051.25;5003101;28;20211;-73
2022/10/29 01:07:10;;;;;;;14.70;9.45;;;;;;;14.04;100.00;101058.06;5003646;28;20632;-74
2022/10/29 01:09:39;;;;;;;30.20;9.38;;;;;;;13.92;100.00;101057.72;5002341;28;20314;-74
2022/10/29 01:12:26;;;;;;;11.45;8.15;;;;;;;13.82;100.00;101056.41;5018759;28;20202;-74
2022/10/29 01:15:01;;;;;;;11.77;8.02;;;;;;;13.80;100.00;101054.75;5022383;28;20293;-73
2022/10/29 01:17:36;;;;;;;14.13;7.10;;;;;;;13.81;100.00;101041.09;5022506;28;20225;-76
2022/10/29 01:20:42;;;;;;;15.10;8.00;;;;;;;13.72;100.00;101038.84;5019896;28;20229;-74
2022/10/29 01:23:34;;;;;;;17.45;9.25;;;;;;;13.72;100.00;101041.56;5003634;28;20653;-73
2022/10/29 01:26:29;;;;;;;13.32;8.82;;;;;;;13.70;100.00;101041.66;5002567;28;20230;-73
2022/10/29 01:29:10;;;;;;;15.25;9.43;;;;;;;13.59;100.00;101029.56;5010375;28;20283;-76
2022/10/29 01:31:43;;;;;;;17.10;9.90;;;;;;;13.68;100.00;101015.59;5008150;28;20203;-73
2022/10/29 01:34:17;;;;;;;25.85;11.25;;;;;;;13.77;100.00;101016.03;5004418;28;20297;-75
2022/10/29 01:36:53;;;;;;;16.08;9.52;;;;;;;13.81;100.00;101008.63;5022005;28;20275;-74
2022/10/29 01:39:27;;;;;;;14.05;10.13;;;;;;;13.90;100.00;101008.16;5021673;28;20603;-75
2022/10/29 01:42:00;;;;;;;19.45;11.55;;;;;;;14.08;100.00;101010.91;5005715;28;20199;-73
2022/10/29 01:44:36;;;;;;;17.55;11.35;;;;;;;14.04;100.00;101010.22;5001846;28;20554;-74
2022/10/29 01:47:10;;;;;;;20.27;11.23;;;;;;;14.10;100.00;101006.31;5002044;28;20194;-74
2022/10/29 01:49:40;;;;;;;24.58;12.13;;;;;;;14.04;100.00;101009.31;5000630;28;20231;-74
2022/10/29 01:52:10;;;;;;;20.80;11.95;;;;;;;14.06;100.00;101007.41;5018294;28;20229;-73
2022/10/29 01:54:40;;;;;;;23.08;13.05;;;;;;;14.09;100.00;101015.41;5020063;28;20206;-73
2022/10/29 01:57:26;;;;;;;18.83;10.77;;;;;;;13.96;100.00;101012.41;5020370;28;20202;-73
2022/10/29 01:59:54;;;;;;;14.52;9.98;;;;;;;13.79;100.00;101021.34;5020380;28;20219;-73
2022/10/29 02:02:28;;;;;;;24.05;12.02;;;;;;;13.62;100.00;101022.19;5019216;28;20584;-72
2022/10/29 02:05:11;;;;;;;29.52;17.35;;;;;;;13.62;100.00;101015.91;5019439;28;20226;-73
2022/10/29 02:07:46;;;;;;;27.88;16.10;;;;;;;13.71;100.00;101031.69;5020579;28;20187;-74
2022/10/29 02:10:21;;;;;;;20.15;12.18;;;;;;;13.59;100.00;101022.34;5026691;28;20230;-74
2022/10/29 02:12:51;;;;;;;20.88;11.88;;;;;;;13.49;100.00;101018.31;5025539;28;20195;-73
2022/10/29 02:15:21;;;;;;;15.93;10.43;;;;;;;13.53;100.00;101011.81;5024285;28;20311;-74
2022/10/29 02:17:49;;;;;;;15.10;8.23;;;;;;;13.35;100.00;101017.13;5022652;28;20209;-74
2022/10/29 02:20:17;;;;;;;15.00;7.85;;;;;;;13.39;100.00;101017.00;5018261;28;20230;-74
2022/10/29 02:22:43;;;;;;;11.20;8.35;;;;;;;13.28;100.00;101028.31;5001087;28;20214;-74
2022/10/29 02:25:11;;;;;;;16.13;9.35;;;;;;;13.25;100.00;101020.28;5006517;28;20709;-73
2022/10/29 02:27:37;;;;;;;14.15;8.43;;;;;;;13.17;100.00;101026.06;5008643;28;20205;-72
2022/10/29 02:30:05;;;;;;;16.83;9.88;;;;;;;13.13;100.00;101029.88;5019396;28;20225;-73
2022/10/29 02:32:32;;;;;;;20.65;10.23;;;;;;;13.15;100.00;101027.97;5019516;28;20292;-74
2022/10/29 02:35:00;;;;;;;13.90;8.52;;;;;;;13.11;100.00;101012.81;5020378;28;20198;-74
2022/10/29 02:37:27;;;;;;;19.70;9.30;;;;;;;13.00;100.00;101017.84;5021806;28;20287;-74
2022/10/29 02:39:53;;;;;;;15.77;8.35;;;;;;;13.08;100.00;101011.16;5023699;28;20646;-74
2022/10/29 02:42:20;;;;;;;18.50;8.85;;;;;;;12.99;100.00;101010.69;5022672;28;20697;-73
2022/10/29 02:44:46;;;;;;;13.48;8.95;;;;;;;12.92;100.00;101013.69;5021629;28;20229;-74
2022/10/29 02:47:13;;;;;;;12.75;8.50;;;;;;;12.96;100.00;101018.94;5001544;28;20207;-75
2022/10/29 02:49:40;;;;;;;12.90;7.93;;;;;;;12.93;100.00;101025.34;5004634;28;20223;-74
2022/10/29 02:52:07;;;;;;;17.23;8.65;;;;;;;12.90;100.00;101017.41;5004565;28;20207;-73
2022/10/29 02:54:34;;;;;;;16.63;9.15;;;;;;;12.79;100.00;101017.00;5005704;28;20686;-73
2022/10/29 02:57:01;;;;;;;16.95;8.70;;;;;;;12.83;100.00;101018.63;5007039;28;20222;-73
2022/10/29 02:59:27;;;;;;;13.50;8.68;;;;;;;12.91;100.00;101019.16;5007816;28;20310;-73
2022/10/29 03:01:54;;;;;;;15.40;9.45;;;;;;;12.86;100.00;101021.19;5006420;28;20204;-73
2022/10/29 03:04:20;;;;;;;23.75;10.73;;;;;;;12.91;100.00;101014.63;5002412;28;20204;-74
2022/10/29 03:06:47;;;;;;;17.48;10.63;;;;;;;12.79;100.00;101012.47;4998742;28;20223;-73
2022/10/29 03:09:15;;;;;;;18.40;11.35;;;;;;;12.86;100.00;101013.06;5000774;28;20211;-73
2022/10/29 03:11:41;;;;;;;21.92;11.32;;;;;;;12.94;100.00;101002.81;5019089;28;20206;-74
2022/10/29 03:14:07;;;;;;;32.05;18.38;;;;;;;12.72;100.00;100995.66;5016964;28;20198;-74
2022/10/29 03:16:34;;;;;;;37.35;15.95;;;;;;;12.62;100.00;100996.16;5009297;28;20255;-73
2022/10/29 03:19:01;;;;;;;35.63;21.40;;;;;;;12.64;100.00;101000.53;5036505;28;20262;-74
2022/10/29 03:21:27;;;;;;;26.60;16.55;;;;;;;12.67;100.00;101016.59;5038039;28;20197;-73
2022/10/29 03:23:54;;;;;;;47.53;27.23;;;;;;;12.60;100.00;101009.72;5037508;28;20207;-73
2022/10/29 03:26:22;;;;;;;45.55;25.35;;;;;;;12.59;100.00;101007.94;5034350;28;20230;-73
2022/10/29 03:28:48;;;;;;;30.50;16.55;;;;;;;12.51;100.00;100999.31;5005285;28;20234;-74
2022/10/29 03:31:15;;;;;;;29.80;18.30;;;;;;;12.63;100.00;100998.75;5005606;28;20231;-74
2022/10/29 03:33:41;;;;;;;35.20;19.23;;;;;;;12.63;100.00;100998.75;5003410;28;20644;-73
2022/10/29 03:36:08;;;;;;;33.67;19.05;;;;;;;12.63;100.00;100998.75;5001823;28;20294;-75
2022/10/29 03:38:35;;;;;;;34.22;17.38;;;;;;;12.48;100.00;101007.53;5022053;28;20208;-73
2022/10/29 03:41:07;;;;;;;26.88;14.20;;;;;;;12.56;100.00;101008.09;5023868;28;20754;-73
2022/10/29 03:43:35;;;;;;;30.13;14.80;;;;;;;12.51;100.00;101015.53;5024158;28;20197;-73
2022/10/29 03:46:01;;;;;;;28.92;15.10;;;;;;;12.37;100.00;101016.13;5021708;28;20229;-74
2022/10/29 03:48:28;;;;;;;28.00;13.75;;;;;;;12.48;100.00;101021.03;5009680;28;20207;-74
2022/10/29 03:50:55;;;;;;;22.45;13.00;;;;;;;12.40;100.00;101018.69;5019690;28;20215;-73
2022/10/29 03:53:22;;;;;;;21.92;11.70;;;;;;;12.25;100.00;101013.94;5003737;28;20203;-74
2022/10/29 03:55:50;;;;;;;21.42;11.73;;;;;;;12.33;100.00;101019.03;5002055;28;20203;-74
2022/10/29 03:58:16;;;;;;;19.27;11.13;;;;;;;12.16;100.00;101012.50;5002100;28;20214;-74
2022/10/29 04:00:44;;;;;;;19.25;11.30;;;;;;;12.24;100.00;101021.16;5010494;28;20225;-73
2022/10/29 04:03:11;;;;;;;16.10;10.77;;;;;;;12.18;100.00;101018.72;5023282;28;20209;-73
2022/10/29 04:05:37;;;;;;;21.30;10.68;;;;;;;12.13;100.00;101020.75;5022948;28;20309;-74
2022/10/29 04:08:04;;;;;;;21.15;9.82;;;;;;;12.21;100.00;101026.72;5018754;28;20202;-73
2022/10/29 04:10:30;;;;;;;15.57;8.90;;;;;;;12.23;100.00;101021.22;5017605;28;20313;-73
2022/10/29 04:12:57;;;;;;;17.50;9.35;;;;;;;12.05;100.00;101017.47;5014957;28;20230;-74
2022/10/29 04:15:24;;;;;;;16.05;9.80;;;;;;;12.18;100.00;101007.03;4998287;28;20207;-75
2022/10/29 04:17:52;;;;;;;16.25;10.05;;;;;;;12.18;100.00;101020.56;4998179;28;20207;-74
2022/10/29 04:20:18;;;;;;;18.05;9.05;;;;;;;12.19;100.00;101025.00;5013825;28;20218;-73
2022/10/29 04:22:50;;;;;;;13.52;8.50;;;;;;;12.31;100.00;101032.59;5015914;28;20676;-74
2022/10/29 04:25:16;;;;;;;17.38;9.18;;;;;;;12.27;100.00;101034.53;5015673;28;20206;-74
2022/10/29 04:27:43;;;;;;;16.45;9.13;;;;;;;12.38;100.00;101025.09;5017170;28;20202;-73
2022/10/29 04:30:10;;;;;;;17.20;9.88;;;;;;;12.42;100.00;101027.59;5018706;28;20219;-73
2022/10/29 04:32:37;;;;;;;17.02;9.75;;;;;;;12.35;100.00;101020.72;5016805;28;20198;-73
2022/10/29 04:35:06;;;;;;;14.00;10.00;;;;;;;12.31;100.00;101010.97;5016458;28;20204;-74
2022/10/29 04:37:32;;;;;;;15.70;8.98;;;;;;;12.38;100.00;100998.09;5016403;28;20206;-75
2022/10/29 04:39:59;;;;;;;19.05;9.23;;;;;;;12.49;100.00;100996.69;5016218;28;20245;-73
2022/10/29 04:42:25;;;;;;;13.93;9.70;;;;;;;12.57;100.00;100993.63;5016232;28;20203;-74
2022/10/29 04:44:52;;;;;;;17.15;8.65;;;;;;;12.56;100.00;100988.31;5015489;28;20207;-73
2022/10/29 04:47:18;;;;;;;18.15;9.40;;;;;;;12.65;100.00;100985.19;5016081;28;20242;-73
2022/10/29 04:49:45;;;;;;;17.73;9.32;;;;;;;12.76;100.00;100996.41;5016256;28;20758;-74
2022/10/29 04:52:13;;;;;;;18.42;8.35;;;;;;;12.85;100.00;100987.88;5018763;28;20206;-74
2022/10/29 04:54:39;;;;;;;16.08;8.98;;;;;;;12.97;100.00;100994.53;5010329;28;20214;-75
2022/10/29 04:57:06;;;;;;;16.30;10.55;;;;;;;13.15;100.00;100990.97;4999179;28;20218;-75
2022/10/29 04:59:32;;;;;;;15.90;8.85;;;;;;;13.19;100.00;100998.97;4998336;28;20233;-73
2022/10/29 05:01:59;;;;;;;16.02;8.73;;;;;;;13.24;100.00;100999.63;4996812;28;20209;-74
2022/10/29 05:04:26;;;;;;;17.23;9.00;;;;;;;13.35;100.00;101000.03;4999194;28;20205;-74
2022/10/29 05:06:53;;;;;;;15.27;8.50;;;;;;;13.30;100.00;101008.38;4999462;28;20219;-74
2022/10/29 05:09:21;;;;;;;13.45;8.00;;;;;;;13.31;100.00;101001.13;4996142;28;20191;-75
2022/10/29 05:11:47;;;;;;;13.30;8.63;;;;;;;13.27;100.00;101011.19;4996640;28;20280;-74
2022/10/29 05:14:14;;;;;;;16.10;9.90;;;;;;;13.33;100.00;101010.03;5003491;28;20210;-75
2022/10/29 05:16:40;;;;;;;19.52;8.02;;;;;;;13.27;100.00;101000.38;4996237;28;20196;-75
2022/10/29 05:19:07;;;;;;;12.93;7.50;;;;;;;13.28;100.00;100999.44;4996131;28;20203;-75
2022/10/29 05:21:33;;;;;;;12.82;9.20;;;;;;;13.29;100.00;100998.47;5001408;28;20206;-74
2022/10/29 05:24:00;;;;;;;15.50;9.45;;;;;;;13.27;100.00;100994.06;5007994;28;20730;-74
2022/10/29 05:26:30;;;;;;;15.68;7.85;;;;;;;13.25;100.00;100995.97;5015175;28;20218;-75
2022/10/29 05:28:56;;;;;;;13.45;8.15;;;;;;;13.27;100.00;101000.38;5014589;28;20206;-75
2022/10/29 05:31:23;;;;;;;13.43;7.70;;;;;;;13.37;100.00;100997.25;5020018;28;20227;-73
2022/10/29 05:33:50;;;;;;;14.88;8.40;;;;;;;13.41;100.00;101004.25;5017169;28;20210;-73
2022/10/29 05:36:17;;;;;;;14.48;8.65;;;;;;;13.41;100.00;101009.66;5003360;28;20211;-73
2022/10/29 05:38:43;;;;;;;12.43;7.80;;;;;;;13.41;100.00;101007.88;5008311;28;20206;-74
2022/10/29 05:41:10;;;;;;;10.93;7.90;;;;;;;13.33;100.00;101005.50;5019096;28;20238;-75
2022/10/29 05:43:38;;;;;;;13.60;7.28;;;;;;;13.32;100.00;101001.06;4999674;28;20210;-73
2022/10/29 05:46:05;;;;;;;23.08;8.20;;;;;;;13.30;100.00;101004.78;5003630;28;20227;-74
2022/10/29 05:48:31;;;;;;;16.13;8.85;;;;;;;13.29;100.00;101003.00;5016612;28;20191;-74
2022/10/29 05:50:58;;;;;;;16.35;9.77;;;;;;;13.34;100.00;101000.97;5012070;28;20233;-74
2022/10/29 05:53:25;;;;;;;17.17;8.38;;;;;;;13.37;100.00;100997.25;5012885;28;20199;-73
2022/10/29 05:55:51;;;;;;;15.35;8.73;;;;;;;13.28;100.00;100998.56;5005420;28;20194;-73
2022/10/29 05:58:18;;;;;;;15.82;10.95;;;;;;;13.38;100.00;100994.47;5001867;28;20207;-74
2022/10/29 06:00:46;;;;;;;15.45;8.73;;;;;;;13.29;100.00;101005.72;5013786;28;20229;-74
2022/10/29 06:03:14;;;;;;;16.70;8.40;;;;;;;13.23;100.00;101003.25;5023976;28;20275;-74
2022/10/29 06:05:41;;;;;;;11.75;8.45;;;;;;;13.26;100.00;100995.88;5020143;28;20535;-74
2022/10/29 06:08:08;;;;;;;15.40;9.27;;;;;;;13.34;100.00;100999.16;5013354;28;20195;-74
2022/10/29 06:10:34;;;;;;;14.18;8.02;;;;;;;13.37;100.00;100995.44;5004060;28;20230;-74
2022/10/29 06:13:01;;;;;;;11.35;7.20;;;;;;;13.38;100.00;100996.28;5000628;28;20199;-74
2022/10/29 06:15:28;;;;;;;19.65;7.80;;;;;;;13.31;100.00;100996.56;5000783;28;20207;-75
2022/10/29 06:17:55;;;;;;;13.70;9.07;;;;;;;13.24;100.00;101005.03;5007925;28;20203;-74
2022/10/29 06:20:22;;;;;;;56.75;39.50;;;;;;;13.25;100.00;101004.06;5019259;28;20237;-74
2022/10/29 06:22:56;;;;;;;34.42;23.10;;;;;;;13.29;100.00;101000.31;5011908;28;20205;-73
2022/10/29 06:25:23;;;;;;;38.28;29.92;;;;;;;13.36;100.00;101007.19;5022853;28;20590;-74
2022/10/29 06:27:57;;;;;;;54.92;39.38;;;;;;;13.41;100.00;101002.44;5005741;28;20566;-74
2022/10/29 06:30:24;;;;;;;29.40;17.70;;;;;;;13.47;100.00;101004.84;5011651;28;20214;-72
2022/10/29 06:32:50;;;;;;;26.92;16.63;;;;;;;13.40;100.00;100995.25;4999892;28;20213;-73
2022/10/29 06:35:18;;;;;;;34.40;17.92;;;;;;;13.45;100.00;101003.16;5013231;28;20675;-72
2022/10/29 06:37:45;;;;;;;37.70;25.17;;;;;;;13.50;100.00;101007.41;5016496;28;20201;-73
2022/10/29 06:40:11;;;;;;;29.48;20.35;;;;;;;13.53;100.00;101007.25;5032668;22;21666;-74
2022/10/29 06:42:38;;;;;;;34.22;23.83;;;;;;;13.63;100.00;101014.94;5018223;28;20225;-73
2022/10/29 06:45:05;;;;;;;21.58;13.13;;;;;;;13.66;100.00;101014.81;5019588;28;20554;-75
2022/10/29 06:47:38;;;;;;;18.17;8.68;;;;;;;13.70;100.00;101019.09;5026200;28;20233;-75
2022/10/29 06:50:05;;;;;;;15.05;7.70;;;;;;;13.73;100.00;101019.84;5036098;28;20233;-75
2022/10/29 06:52:33;;;;;;;15.05;7.93;;;;;;;13.77;100.00;101015.16;5019823;28;20742;-74
2022/10/29 06:55:01;;;;;;;12.85;8.75;;;;;;;13.80;100.00;101016.84;5039549;28;20206;-76
2022/10/29 06:57:27;;;;;;;23.55;10.23;;;;;;;13.84;100.00;101021.13;5027664;28;20194;-72
2022/10/29 06:59:54;;;;;;;20.98;11.00;;;;;;;13.90;100.00;101021.69;5029023;28;20229;-75
2022/10/29 07:02:22;;;;;;;29.25;22.17;;;;;;;13.95;100.00;101030.50;5026102;28;20199;-69
2022/10/29 07:04:48;;;;;;;17.05;10.73;;;;;;;13.91;100.00;101028.88;5016319;28;20225;-68
2022/10/29 07:07:15;;;;;;;28.85;19.60;;;;;;;13.89;100.00;101036.22;5026303;28;20225;-69
2022/10/29 07:09:43;;;;;;;21.35;10.88;;;;;;;13.97;100.00;101036.72;5024989;28;20621;-68
2022/10/29 07:12:10;;;;;;;15.07;9.02;;;;;;;13.99;100.00;101031.22;5029708;28;20313;-70
2022/10/29 07:14:37;;;;;;;15.93;8.80;;;;;;;14.04;100.00;101034.59;5033720;28;20201;-68
2022/10/29 07:17:03;;;;;;;15.40;7.93;;;;;;;14.15;100.00;101032.19;5021728;28;20202;-69
2022/10/29 07:19:29;;;;;;;17.45;8.68;;;;;;;14.02;100.00;101030.16;5020477;28;20182;-71
2022/10/29 07:21:56;;;;;;;14.50;7.88;;;;;;;14.06;100.00;101023.66;5023022;28;20222;-69
2022/10/29 07:24:23;;;;;;;19.05;8.50;;;;;;;14.03;100.00;101021.13;5021109;28;20196;-69
2022/10/29 07:26:50;;;;;;;14.60;8.18;;;;;;;14.02;100.00;101027.47;5036746;28;20737;-69
2022/10/29 07:29:17;;;;;;;12.30;8.00;;;;;;;14.15;100.00;101034.91;5020626;28;20229;-68
2022/10/29 07:31:43;;;;;;;13.75;9.50;;;;;;;14.16;100.00;101033.97;5024637;28;20244;-69
2022/10/29 07:34:10;;;;;;;19.00;9.32;;;;;;;14.28;100.00;101031.59;5035629;28;20671;-69
2022/10/29 07:36:36;;;;;;;16.52;8.52;;;;;;;14.36;100.00;101035.66;5022254;28;20190;-68
2022/10/29 07:39:03;;;;;;;47.65;35.65;;;;;;;14.46;100.00;101046.03;5034599;28;20202;-68
2022/10/29 07:41:30;;;;;;;33.38;23.38;;;;;;;14.46;100.00;101049.59;5033139;28;20221;-68
2022/10/29 07:43:58;;;;;;;22.85;10.70;;;;;;;14.56;100.00;101042.81;5035289;28;20248;-67
2022/10/29 07:46:25;;;;;;;22.73;10.52;;;;;;;14.54;100.00;101044.72;5026672;28;20325;-68
2022/10/29 07:48:51;;;;;;;16.38;8.80;;;;;;;14.74;100.00;101034.66;5019746;28;20205;-69
2022/10/29 07:51:18;;;;;;;22.55;11.07;;;;;;;14.67;100.00;101042.22;5026540;28;20232;-74
2022/10/29 07:53:45;;;;;;;12.10;8.75;;;;;;;14.74;100.00;101038.25;5037873;28;20205;-74
2022/10/29 07:56:12;;;;;;;20.55;9.00;;;;;;;14.89;100.00;101038.41;5047614;28;20202;-76
2022/10/29 07:58:38;;;;;;;17.48;10.93;;;;;;;14.97;100.00;101038.88;5045454;28;20618;-74
2022/10/29 08:01:06;;;;;;;16.10;10.27;;;;;;;15.11;100.00;101038.13;5045447;28;20221;-75
2022/10/29 08:03:33;;;;;;;18.70;10.40;;;;;;;15.27;100.00;101038.16;5045990;28;20230;-74
2022/10/29 08:05:59;;;;;;;14.73;9.85;;;;;;;15.38;100.00;101038.44;5037583;28;20390;-75
2022/10/29 08:08:26;;;;;;;15.55;10.05;;;;;;;15.38;100.00;101030.31;5017429;28;20206;-75
2022/10/29 08:10:52;;;;;;;16.25;11.98;;;;;;;15.50;100.00;101026.91;5022989;28;20290;-76
2022/10/29 08:13:19;;;;;;;23.75;17.70;;;;;;;15.53;100.00;101037.56;5026876;28;20198;-74
2022/10/29 08:15:46;;;;;;;34.40;24.65;;;;;;;15.63;100.00;101036.09;5027271;28;20207;-75
2022/10/29 08:18:17;;;;;;;29.13;17.02;;;;;;;15.67;100.00;101034.09;5020093;28;20292;-75
2022/10/29 08:20:44;;;;;;;17.63;11.18;;;;;;;15.76;100.00;101047.19;5021567;28;20229;-75
2022/10/29 08:23:10;;;;;;;15.07;10.57;;;;;;;15.75;100.00;101037.28;5018735;28;20201;-75
2022/10/29 08:25:40;;;;;;;19.10;10.55;;;;;;;15.81;100.00;101038.78;5017203;28;20233;-75
2022/10/29 08:28:07;;;;;;;26.10;11.13;;;;;;;15.86;100.00;101028.53;5019195;28;20288;-75
2022/10/29 08:30:34;;;;;;;22.95;10.70;;;;;;;15.92;100.00;101030.91;5017554;28;20226;-74
2022/10/29 08:33:01;;;;;;;24.48;10.68;;;;;;;15.90;100.00;101032.81;5021974;28;20202;-75
2022/10/29 08:35:30;;;;;;;20.83;11.00;;;;;;;15.88;100.00;101040.19;5029125;28;20194;-75
2022/10/29 08:37:56;;;;;;;17.48;10.20;;;;;;;15.99;100.00;101043.16;5036583;28;20212;-75
2022/10/29 08:40:30;;;;;;;15.73;9.82;;;;;;;16.10;100.00;101036.19;5036515;28;20230;-74
2022/10/29 08:43:25;;;;;;;14.80;9.90;;;;;;;16.13;100.00;101041.47;5035901;28;20602;-75
2022/10/29 08:45:53;;;;;;;16.65;10.13;;;;;;;16.27;100.00;101036.09;5034516;28;20613;-73
2022/10/29 08:48:28;;;;;;;21.02;10.60;;;;;;;16.27;100.00;101030.66;5031043;28;21567;-75
2022/10/29 08:51:03;;;;;;;13.82;10.35;;;;;;;16.32;100.00;101041.25;5028542;28;20225;-75
2022/10/29 08:53:36;;;;;;;18.83;10.70;;;;;;;16.29;100.00;101038.75;5047456;28;20196;-75
2022/10/29 08:56:05;;;;;;;18.13;10.85;;;;;;;16.28;100.00;101037.88;5046448;28;20711;-75
2022/10/29 08:58:41;;;;;;;16.45;10.07;;;;;;;16.36;100.00;101040.13;5031085;28;20194;-74
2022/10/29 09:01:11;;;;;;;18.50;10.20;;;;;;;16.40;100.00;101039.84;5020434;28;20253;-75
2022/10/29 09:03:38;;;;;;;18.13;10.95;;;;;;;16.49;100.00;101038.41;5035304;28;20664;-75
2022/10/29 09:06:13;;;;;;;14.30;10.65;;;;;;;16.59;100.00;101033.28;5041549;28;20615;-75
2022/10/29 09:08:52;;;;;;;19.60;10.20;;;;;;;16.60;100.00;101022.34;5039056;28;20216;-75
2022/10/29 09:11:37;;;;;;;17.85;9.95;;;;;;;16.66;100.00;101026.50;5037987;28;20225;-75
2022/10/29 09:14:21;;;;;;;13.98;9.35;;;;;;;16.76;100.00;101019.56;5040562;28;20201;-74
2022/10/29 09:16:56;;;;;;;26.63;10.95;;;;;;;16.93;100.00;101020.38;5031711;28;20179;-74
2022/10/29 09:19:34;;;;;;;22.25;10.50;;;;;;;17.16;100.00;101027.09;5020700;28;20182;-75
2022/10/29 09:22:12;;;;;;;15.25;8.95;;;;;;;17.27;100.00;101024.56;5020123;28;20201;-74
2022/10/29 09:24:46;;;;;;;13.95;9.88;;;;;;;17.50;100.00;101012.19;5023936;28;20657;-74
2022/10/29 09:27:17;;;;;;;13.82;10.23;;;;;;;17.60;100.00;101013.38;5029566;28;20730;-74
2022/10/29 09:29:58;;;;;;;14.98;11.05;;;;;;;17.78;100.00;101008.56;5029893;28;20191;-75
2022/10/29 09:32:31;;;;;;;16.63;11.30;;;;;;;17.89;100.00;101005.19;5028114;28;20195;-76
2022/10/29 09:35:02;;;;;;;16.97;10.90;;;;;;;17.99;100.00;101000.84;5027789;28;20443;-76
2022/10/29 09:37:43;;;;;;;16.02;10.65;;;;;;;18.00;100.00;101002.59;5022790;28;20421;-75
2022/10/29 09:40:27;;;;;;;19.08;9.80;;;;;;;18.06;100.00;100999.44;5022054;28;20233;-76
2022/10/29 09:42:54;;;;;;;16.85;10.50;;;;;;;18.11;100.00;100997.31;5021905;28;20393;-74
2022/10/29 09:45:28;;;;;;;20.52;10.25;;;;;;;18.08;100.00;101002.06;5038530;28;20216;-75
2022/10/29 09:48:04;;;;;;;39.13;29.98;;;;;;;18.01;100.00;100993.44;5037172;28;20214;-67
2022/10/29 09:50:38;;;;;;;60.08;46.40;;;;;;;17.96;100.00;100989.28;5038628;28;20225;-68
2022/10/29 09:53:07;;;;;;;23.88;15.18;;;;;;;17.71;100.00;100994.47;5037712;28;20190;-70
2022/10/29 09:55:41;;;;;;;20.33;14.02;;;;;;;17.71;100.00;100994.47;5037831;28;20205;-69
2022/10/29 09:58:15;;;;;;;22.98;15.32;;;;;;;17.64;100.00;100992.25;5031851;28;20187;-68
2022/10/29 10:00:41;;;;;;;24.00;15.48;;;;;;;17.64;100.00;100987.69;5018612;28;20233;-69
2022/10/29 10:03:14;;;;;;;24.52;16.33;;;;;;;17.66;100.00;100985.75;5018533;28;20207;-68
2022/10/29 10:05:57;;;;;;;20.10;14.95;;;;;;;17.71;100.00;100975.41;5024211;28;20597;-68
2022/10/29 10:08:25;;;;;;;23.30;16.20;;;;;;;17.93;100.00;100976.72;5017277;28;20663;-68
2022/10/29 10:10:53;;;;;;;22.05;15.15;;;;;;;18.02;100.00;100984.31;5019582;28;20233;-68
2022/10/29 10:13:22;;;;;;;19.05;14.23;;;;;;;17.94;100.00;100983.94;5042289;28;20253;-68
2022/10/29 10:15:52;;;;;;;27.30;14.15;;;;;;;18.08;100.00;100974.81;5047266;28;20313;-74
2022/10/29 10:18:21;;;;;;;19.05;14.38;;;;;;;18.24;100.00;100971.94;5031022;28;20213;-69
2022/10/29 10:21:00;;;;;;;21.93;15.27;;;;;;;18.38;100.00;100966.38;5021026;28;20598;-69
2022/10/29 10:23:38;;;;;;;18.60;12.93;;;;;;;18.52;100.00;100963.59;5036687;28;20451;-69
2022/10/29 10:26:05;;;;;;;19.90;12.43;;;;;;;18.74;100.00;100954.75;5028236;28;20281;-67
2022/10/29 10:28:33;;;;;;;19.63;13.43;;;;;;;18.99;100.00;100960.34;5036164;28;20507;-68
2022/10/29 10:31:11;;;;;;;22.93;13.07;;;;;;;19.47;100.00;100958.66;5037072;28;20483;-67
2022/10/29 10:33:48;;;;;;;21.53;13.50;;;;;;;19.84;100.00;100952.31;5035747;28;20828;-68
2022/10/29 10:36:15;;;;;;;19.40;12.60;;;;;;;20.54;100.00;100965.16;5019110;28;20460;-71
2022/10/29 10:38:45;;;;;;;16.63;12.57;;;;;;;21.33;100.00;100941.50;5041325;28;20468;-71
2022/10/29 10:41:13;;;;;;;15.60;11.40;;;;;;;23.26;100.00;100935.00;5025494;28;20476;-71
2022/10/29 10:43:43;;;;;;;15.37;11.20;;;;;;;25.31;95.84;100946.03;5042219;28;20448;-69
2022/10/29 10:46:15;;;;;;;15.90;10.57;;;;;;;26.26;85.79;100939.16;5024529;28;20441;-71
2022/10/29 10:48:42;;;;;;;15.80;9.77;;;;;;;27.23;73.73;100929.03;5022451;28;20465;-74
2022/10/29 10:51:19;;;;;;;15.67;9.10;;;;;;;28.22;66.02;100933.84;5024496;28;20468;-73
2022/10/29 10:53:47;;;;;;;17.30;9.70;;;;;;;28.34;62.64;100934.34;5023440;28;20440;-73
2022/10/29 10:56:18;;;;;;;16.27;9.70;;;;;;;27.29;63.39;100928.34;5024331;28;20783;-75
2022/10/29 10:58:51;;;;;;;17.77;9.60;;;;;;;25.02;78.39;100926.81;5028595;28;20432;-75
2022/10/29 11:01:23;;;;;;;21.00;9.63;;;;;;;22.97;94.29;100918.34;5036614;28;20551;-73
2022/10/29 11:03:58;;;;;;;15.73;8.27;;;;;;;22.88;99.35;100916.44;5041909;28;20907;-75
2022/10/29 11:06:29;;;;;;;14.13;9.00;;;;;;;22.41;100.00;100918.75;5027152;28;20432;-74
2022/10/29 11:09:03;;;;;;;16.00;8.27;;;;;;;21.52;100.00;100912.59;5040610;28;20579;-73
2022/10/29 11:11:33;;;;;;;17.23;9.60;;;;;;;21.39;100.00;100916.34;5021898;28;20990;-75
2022/10/29 11:14:05;;;;;;;17.43;9.20;;;;;;;21.09;100.00;100918.84;5040873;28;20446;-74
2022/10/29 11:16:39;;;;;;;19.27;10.33;;;;;;;21.23;100.00;100900.28;5033324;28;20457;-74